sensor_id;sensor_type;location;lat;lon;timestamp;temperature;humidity
26254;DHT22;53339;51.378;0.094;2022-12-07T00:01:33;4.90;88.00
26254;DHT22;53339;51.378;0.094;2022-12-07T00:04:02;4.80;87.90
26254;DHT22;53339;51.378;0.094;2022-12-07T00:06:36;4.90;87.80
26254;DHT22;53339;51.378;0.094;2022-12-07T00:09:06;4.90;87.90
26254;DHT22;53339;51.378;0.094;2022-12-07T00:11:33;4.90;87.90
26254;DHT22;53339;51.378;0.094;2022-12-07T00:14:05;4.90;87.90
26254;DHT22;53339;51.378;0.094;2022-12-07T00:16:34;4.90;87.90
26254;DHT22;53339;51.378;0.094;2022-12-07T00:19:02;4.90;87.80
26254;DHT22;53339;51.378;0.094;2022-12-07T00:21:33;4.90;87.80
26254;DHT22;53339;51.378;0.094;2022-12-07T00:24:01;4.90;87.70
26254;DHT22;53339;51.378;0.094;2022-12-07T00:26:35;4.90;87.80
26254;DHT22;53339;51.378;0.094;2022-12-07T00:29:18;5.00;87.70
26254;DHT22;53339;51.378;0.094;2022-12-07T00:31:47;4.90;87.70
26254;DHT22;53339;51.378;0.094;2022-12-07T00:34:18;4.90;87.70
26254;DHT22;53339;51.378;0.094;2022-12-07T00:36:46;4.90;87.30
26254;DHT22;53339;51.378;0.094;2022-12-07T00:39:13;4.90;87.50
26254;DHT22;53339;51.378;0.094;2022-12-07T00:41:41;4.80;87.60
26254;DHT22;53339;51.378;0.094;2022-12-07T00:44:08;4.80;87.70
26254;DHT22;53339;51.378;0.094;2022-12-07T00:46:36;4.80;87.50
26254;DHT22;53339;51.378;0.094;2022-12-07T00:49:03;4.80;87.40
26254;DHT22;53339;51.378;0.094;2022-12-07T00:51:31;4.70;87.40
26254;DHT22;53339;51.378;0.094;2022-12-07T00:53:59;4.70;87.50
26254;DHT22;53339;51.378;0.094;2022-12-07T00:56:27;4.70;87.40
26254;DHT22;53339;51.378;0.094;2022-12-07T00:58:57;4.70;87.50
26254;DHT22;53339;51.378;0.094;2022-12-07T01:01:27;4.70;87.50
26254;DHT22;53339;51.378;0.094;2022-12-07T01:03:56;4.60;87.60
26254;DHT22;53339;51.378;0.094;2022-12-07T01:06:24;4.60;87.30
26254;DHT22;53339;51.378;0.094;2022-12-07T01:08:52;4.60;87.30
26254;DHT22;53339;51.378;0.094;2022-12-07T01:11:22;4.50;87.30
26254;DHT22;53339;51.378;0.094;2022-12-07T01:13:51;4.40;87.30
26254;DHT22;53339;51.378;0.094;2022-12-07T01:16:19;4.40;87.00
26254;DHT22;53339;51.378;0.094;2022-12-07T01:18:49;4.30;87.20
26254;DHT22;53339;51.378;0.094;2022-12-07T01:21:36;4.30;87.40
26254;DHT22;53339;51.378;0.094;2022-12-07T01:24:07;4.30;87.50
26254;DHT22;53339;51.378;0.094;2022-12-07T01:26:36;4.20;87.10
26254;DHT22;53339;51.378;0.094;2022-12-07T01:29:04;4.20;87.30
26254;DHT22;53339;51.378;0.094;2022-12-07T01:31:32;4.20;87.50
26254;DHT22;53339;51.378;0.094;2022-12-07T01:33:59;4.20;87.50
26254;DHT22;53339;51.378;0.094;2022-12-07T01:36:33;4.10;87.20
26254;DHT22;53339;51.378;0.094;2022-12-07T01:39:06;4.10;87.30
26254;DHT22;53339;51.378;0.094;2022-12-07T01:41:36;4.10;87.50
26254;DHT22;53339;51.378;0.094;2022-12-07T01:44:27;4.10;87.60
26254;DHT22;53339;51.378;0.094;2022-12-07T01:46:59;4.10;87.20
26254;DHT22;53339;51.378;0.094;2022-12-07T01:49:46;4.00;87.40
26254;DHT22;53339;51.378;0.094;2022-12-07T01:52:28;4.00;87.60
26254;DHT22;53339;51.378;0.094;2022-12-07T01:55:09;4.00;87.50
26254;DHT22;53339;51.378;0.094;2022-12-07T01:57:45;3.90;87.00
26254;DHT22;53339;51.378;0.094;2022-12-07T02:00:14;3.80;87.30
26254;DHT22;53339;51.378;0.094;2022-12-07T02:02:48;3.80;87.70
26254;DHT22;53339;51.378;0.094;2022-12-07T02:05:18;3.80;87.50
26254;DHT22;53339;51.378;0.094;2022-12-07T02:07:47;3.70;87.20
26254;DHT22;53339;51.378;0.094;2022-12-07T02:10:18;3.60;87.50
26254;DHT22;53339;51.378;0.094;2022-12-07T02:12:49;3.70;87.70
26254;DHT22;53339;51.378;0.094;2022-12-07T02:15:21;3.60;87.70
26254;DHT22;53339;51.378;0.094;2022-12-07T02:18:03;3.50;87.50
26254;DHT22;53339;51.378;0.094;2022-12-07T02:20:33;3.50;87.80
26254;DHT22;53339;51.378;0.094;2022-12-07T02:31:37;3.40;87.80
26254;DHT22;53339;51.378;0.094;2022-12-07T02:34:11;3.40;88.00
26254;DHT22;53339;51.378;0.094;2022-12-07T02:36:52;3.30;87.70
26254;DHT22;53339;51.378;0.094;2022-12-07T02:39:40;3.20;87.70
26254;DHT22;53339;51.378;0.094;2022-12-07T02:42:19;3.20;88.00
26254;DHT22;53339;51.378;0.094;2022-12-07T02:44:49;3.20;88.20
26254;DHT22;53339;51.378;0.094;2022-12-07T02:47:20;3.10;87.80
26254;DHT22;53339;51.378;0.094;2022-12-07T02:49:49;3.00;87.90
26254;DHT22;53339;51.378;0.094;2022-12-07T02:52:17;3.00;88.20
26254;DHT22;53339;51.378;0.094;2022-12-07T02:54:45;3.10;88.50
26254;DHT22;53339;51.378;0.094;2022-12-07T02:57:32;3.00;88.20
26254;DHT22;53339;51.378;0.094;2022-12-07T03:02:45;3.10;88.80
26254;DHT22;53339;51.378;0.094;2022-12-07T03:05:43;3.20;88.90
26254;DHT22;53339;51.378;0.094;2022-12-07T03:08:23;3.20;88.60
26254;DHT22;53339;51.378;0.094;2022-12-07T03:10:58;3.20;88.80
26254;DHT22;53339;51.378;0.094;2022-12-07T03:16:05;3.40;88.80
26254;DHT22;53339;51.378;0.094;2022-12-07T03:18:43;3.40;88.40
26254;DHT22;53339;51.378;0.094;2022-12-07T03:21:15;3.40;88.70
26254;DHT22;53339;51.378;0.094;2022-12-07T03:23:46;3.50;88.90
26254;DHT22;53339;51.378;0.094;2022-12-07T03:26:17;3.50;88.70
26254;DHT22;53339;51.378;0.094;2022-12-07T03:28:50;3.50;88.40
26254;DHT22;53339;51.378;0.094;2022-12-07T03:31:29;3.50;88.60
26254;DHT22;53339;51.378;0.094;2022-12-07T03:34:16;3.60;88.90
26254;DHT22;53339;51.378;0.094;2022-12-07T03:42:31;3.70;88.70
26254;DHT22;53339;51.378;0.094;2022-12-07T03:44:59;3.70;88.50
26254;DHT22;53339;51.378;0.094;2022-12-07T03:47:37;3.60;87.90
26254;DHT22;53339;51.378;0.094;2022-12-07T03:50:15;3.50;88.20
26254;DHT22;53339;51.378;0.094;2022-12-07T03:52:58;3.60;88.50
26254;DHT22;53339;51.378;0.094;2022-12-07T03:55:30;3.60;88.50
26254;DHT22;53339;51.378;0.094;2022-12-07T03:58:03;3.50;88.10
26254;DHT22;53339;51.378;0.094;2022-12-07T04:00:31;3.50;88.40
26254;DHT22;53339;51.378;0.094;2022-12-07T04:02:59;3.60;88.70
26254;DHT22;53339;51.378;0.094;2022-12-07T04:05:26;3.60;88.60
26254;DHT22;53339;51.378;0.094;2022-12-07T04:07:54;3.60;88.20
26254;DHT22;53339;51.378;0.094;2022-12-07T04:10:22;3.60;88.40
26254;DHT22;53339;51.378;0.094;2022-12-07T04:12:49;3.70;88.60
26254;DHT22;53339;51.378;0.094;2022-12-07T04:15:17;3.70;88.50
26254;DHT22;53339;51.378;0.094;2022-12-07T04:17:45;3.60;88.20
26254;DHT22;53339;51.378;0.094;2022-12-07T04:20:12;3.60;88.40
26254;DHT22;53339;51.378;0.094;2022-12-07T04:22:40;3.70;88.60
26254;DHT22;53339;51.378;0.094;2022-12-07T04:25:08;3.70;88.50
26254;DHT22;53339;51.378;0.094;2022-12-07T04:27:35;3.70;88.00
26254;DHT22;53339;51.378;0.094;2022-12-07T04:30:04;3.60;88.20
26254;DHT22;53339;51.378;0.094;2022-12-07T04:32:31;3.60;88.50
26254;DHT22;53339;51.378;0.094;2022-12-07T04:34:59;3.70;88.50
26254;DHT22;53339;51.378;0.094;2022-12-07T04:37:27;3.70;88.10
26254;DHT22;53339;51.378;0.094;2022-12-07T04:39:54;3.60;88.30
26254;DHT22;53339;51.378;0.094;2022-12-07T04:42:22;3.70;88.50
26254;DHT22;53339;51.378;0.094;2022-12-07T04:44:49;3.70;88.40
26254;DHT22;53339;51.378;0.094;2022-12-07T04:47:18;3.70;87.90
26254;DHT22;53339;51.378;0.094;2022-12-07T04:49:45;3.70;88.00
26254;DHT22;53339;51.378;0.094;2022-12-07T04:52:13;3.70;88.30
26254;DHT22;53339;51.378;0.094;2022-12-07T04:54:40;3.70;88.30
26254;DHT22;53339;51.378;0.094;2022-12-07T04:57:08;3.70;87.90
26254;DHT22;53339;51.378;0.094;2022-12-07T04:59:35;3.60;88.00
26254;DHT22;53339;51.378;0.094;2022-12-07T05:02:07;3.60;88.30
26254;DHT22;53339;51.378;0.094;2022-12-07T05:04:34;3.60;88.30
26254;DHT22;53339;51.378;0.094;2022-12-07T05:07:02;3.60;87.60
26254;DHT22;53339;51.378;0.094;2022-12-07T05:09:29;3.50;87.80
26254;DHT22;53339;51.378;0.094;2022-12-07T05:11:57;3.50;88.20
26254;DHT22;53339;51.378;0.094;2022-12-07T05:14:25;3.60;88.40
26254;DHT22;53339;51.378;0.094;2022-12-07T05:16:52;3.60;88.00
26254;DHT22;53339;51.378;0.094;2022-12-07T05:19:21;3.60;88.10
26254;DHT22;53339;51.378;0.094;2022-12-07T05:21:48;3.60;88.30
26254;DHT22;53339;51.378;0.094;2022-12-07T05:24:16;3.60;88.30
26254;DHT22;53339;51.378;0.094;2022-12-07T05:26:44;3.50;87.80
26254;DHT22;53339;51.378;0.094;2022-12-07T05:29:14;3.50;87.90
26254;DHT22;53339;51.378;0.094;2022-12-07T05:31:42;3.50;88.20
26254;DHT22;53339;51.378;0.094;2022-12-07T05:34:10;3.50;88.20
26254;DHT22;53339;51.378;0.094;2022-12-07T05:36:38;3.50;87.80
26254;DHT22;53339;51.378;0.094;2022-12-07T05:39:06;3.40;87.80
26254;DHT22;53339;51.378;0.094;2022-12-07T05:41:34;3.40;88.20
26254;DHT22;53339;51.378;0.094;2022-12-07T05:44:25;3.50;88.30
26254;DHT22;53339;51.378;0.094;2022-12-07T05:46:52;3.40;87.90
26254;DHT22;53339;51.378;0.094;2022-12-07T05:49:20;3.40;87.90
26254;DHT22;53339;51.378;0.094;2022-12-07T05:51:47;3.40;88.10
26254;DHT22;53339;51.378;0.094;2022-12-07T05:54:15;3.50;88.20
26254;DHT22;53339;51.378;0.094;2022-12-07T05:56:42;3.40;87.60
26254;DHT22;53339;51.378;0.094;2022-12-07T05:59:10;3.40;87.60
26254;DHT22;53339;51.378;0.094;2022-12-07T06:02:14;3.40;88.00
26254;DHT22;53339;51.378;0.094;2022-12-07T06:04:45;3.40;88.20
26254;DHT22;53339;51.378;0.094;2022-12-07T06:07:14;3.40;87.80
26254;DHT22;53339;51.378;0.094;2022-12-07T06:09:42;3.40;88.00
26254;DHT22;53339;51.378;0.094;2022-12-07T06:12:11;3.50;88.30
26254;DHT22;53339;51.378;0.094;2022-12-07T06:14:57;3.50;88.20
26254;DHT22;53339;51.378;0.094;2022-12-07T06:17:25;3.40;87.60
26254;DHT22;53339;51.378;0.094;2022-12-07T06:19:52;3.40;87.80
26254;DHT22;53339;51.378;0.094;2022-12-07T06:22:20;3.40;88.20
26254;DHT22;53339;51.378;0.094;2022-12-07T06:24:47;3.50;88.10
26254;DHT22;53339;51.378;0.094;2022-12-07T06:27:15;3.50;87.80
26254;DHT22;53339;51.378;0.094;2022-12-07T06:29:43;3.50;87.90
26254;DHT22;53339;51.378;0.094;2022-12-07T06:32:10;3.50;88.20
26254;DHT22;53339;51.378;0.094;2022-12-07T06:34:39;3.60;88.10
26254;DHT22;53339;51.378;0.094;2022-12-07T06:37:06;3.50;87.60
26254;DHT22;53339;51.378;0.094;2022-12-07T06:39:34;3.50;87.90
26254;DHT22;53339;51.378;0.094;2022-12-07T06:42:02;3.50;88.10
26254;DHT22;53339;51.378;0.094;2022-12-07T06:44:29;3.60;88.10
26254;DHT22;53339;51.378;0.094;2022-12-07T06:46:57;3.60;87.60
26254;DHT22;53339;51.378;0.094;2022-12-07T06:49:44;3.50;87.80
26254;DHT22;53339;51.378;0.094;2022-12-07T06:52:12;3.60;88.10
26254;DHT22;53339;51.378;0.094;2022-12-07T06:54:40;3.60;88.00
26254;DHT22;53339;51.378;0.094;2022-12-07T06:57:07;3.50;87.50
26254;DHT22;53339;51.378;0.094;2022-12-07T06:59:35;3.50;87.80
26254;DHT22;53339;51.378;0.094;2022-12-07T07:02:02;3.60;88.10
26254;DHT22;53339;51.378;0.094;2022-12-07T07:04:30;3.60;88.10
26254;DHT22;53339;51.378;0.094;2022-12-07T07:06:58;3.50;87.70
26254;DHT22;53339;51.378;0.094;2022-12-07T07:09:26;3.50;87.90
26254;DHT22;53339;51.378;0.094;2022-12-07T07:11:54;3.60;88.10
26254;DHT22;53339;51.378;0.094;2022-12-07T07:14:22;3.60;88.10
26254;DHT22;53339;51.378;0.094;2022-12-07T07:16:49;3.60;87.70
26254;DHT22;53339;51.378;0.094;2022-12-07T07:19:17;3.50;87.90
26254;DHT22;53339;51.378;0.094;2022-12-07T07:21:44;3.60;88.10
26254;DHT22;53339;51.378;0.094;2022-12-07T07:24:12;3.60;88.00
26254;DHT22;53339;51.378;0.094;2022-12-07T07:26:39;3.60;87.70
26254;DHT22;53339;51.378;0.094;2022-12-07T07:29:07;3.60;87.80
26254;DHT22;53339;51.378;0.094;2022-12-07T07:31:35;3.60;88.00
26254;DHT22;53339;51.378;0.094;2022-12-07T07:34:03;3.60;88.00
26254;DHT22;53339;51.378;0.094;2022-12-07T07:36:30;3.60;87.50
26254;DHT22;53339;51.378;0.094;2022-12-07T07:38:58;3.60;87.60
26254;DHT22;53339;51.378;0.094;2022-12-07T07:41:25;3.60;87.80
26254;DHT22;53339;51.378;0.094;2022-12-07T07:43:53;3.60;87.90
26254;DHT22;53339;51.378;0.094;2022-12-07T07:46:20;3.60;87.40
26254;DHT22;53339;51.378;0.094;2022-12-07T07:48:48;3.50;87.20
26254;DHT22;53339;51.378;0.094;2022-12-07T07:51:16;3.60;87.60
26254;DHT22;53339;51.378;0.094;2022-12-07T07:53:43;3.50;87.80
26254;DHT22;53339;51.378;0.094;2022-12-07T07:56:11;3.60;87.40
26254;DHT22;53339;51.378;0.094;2022-12-07T07:58:38;3.40;87.00
26254;DHT22;53339;51.378;0.094;2022-12-07T08:01:07;3.40;87.00
26254;DHT22;53339;51.378;0.094;2022-12-07T08:03:35;3.30;86.90
26254;DHT22;53339;51.378;0.094;2022-12-07T08:06:03;3.20;86.90
26254;DHT22;53339;51.378;0.094;2022-12-07T08:08:31;3.20;87.30
26254;DHT22;53339;51.378;0.094;2022-12-07T08:10:59;3.30;87.80
26254;DHT22;53339;51.378;0.094;2022-12-07T08:13:28;3.40;88.00
26254;DHT22;53339;51.378;0.094;2022-12-07T08:15:58;3.40;87.70
26254;DHT22;53339;51.378;0.094;2022-12-07T08:18:25;3.40;87.30
26254;DHT22;53339;51.378;0.094;2022-12-07T08:20:58;3.40;87.30
26254;DHT22;53339;51.378;0.094;2022-12-07T08:23:27;3.30;87.30
26254;DHT22;53339;51.378;0.094;2022-12-07T08:26:05;3.30;87.30
26254;DHT22;53339;51.378;0.094;2022-12-07T08:28:32;3.20;87.30
26254;DHT22;53339;51.378;0.094;2022-12-07T08:31:05;3.30;87.40
26254;DHT22;53339;51.378;0.094;2022-12-07T08:33:34;3.30;87.60
26254;DHT22;53339;51.378;0.094;2022-12-07T08:36:04;3.30;87.40
26254;DHT22;53339;51.378;0.094;2022-12-07T08:38:33;3.30;87.40
26254;DHT22;53339;51.378;0.094;2022-12-07T08:41:01;3.40;87.70
26254;DHT22;53339;51.378;0.094;2022-12-07T08:43:29;3.50;87.90
26254;DHT22;53339;51.378;0.094;2022-12-07T08:46:21;3.60;87.60
26254;DHT22;53339;51.378;0.094;2022-12-07T08:48:54;3.40;87.00
26254;DHT22;53339;51.378;0.094;2022-12-07T08:51:24;3.50;87.40
26254;DHT22;53339;51.378;0.094;2022-12-07T08:53:53;3.50;87.70
26254;DHT22;53339;51.378;0.094;2022-12-07T08:56:21;3.60;87.40
26254;DHT22;53339;51.378;0.094;2022-12-07T08:58:49;3.50;86.90
26254;DHT22;53339;51.378;0.094;2022-12-07T09:01:17;3.50;87.30
26254;DHT22;53339;51.378;0.094;2022-12-07T09:03:44;3.60;87.60
26254;DHT22;53339;51.378;0.094;2022-12-07T09:06:12;3.60;87.30
26254;DHT22;53339;51.378;0.094;2022-12-07T09:08:43;3.50;86.80
26254;DHT22;53339;51.378;0.094;2022-12-07T09:11:12;3.50;87.20
26254;DHT22;53339;51.378;0.094;2022-12-07T09:13:40;3.60;87.40
26254;DHT22;53339;51.378;0.094;2022-12-07T09:16:10;3.70;87.20
26254;DHT22;53339;51.378;0.094;2022-12-07T09:18:38;3.60;86.50
26254;DHT22;53339;51.378;0.094;2022-12-07T09:21:05;3.60;86.80
26254;DHT22;53339;51.378;0.094;2022-12-07T09:23:33;3.70;87.00
26254;DHT22;53339;51.378;0.094;2022-12-07T09:26:02;3.70;86.70
26254;DHT22;53339;51.378;0.094;2022-12-07T09:28:36;3.60;86.30
26254;DHT22;53339;51.378;0.094;2022-12-07T09:31:06;3.60;86.70
26254;DHT22;53339;51.378;0.094;2022-12-07T09:33:55;3.70;86.90
26254;DHT22;53339;51.378;0.094;2022-12-07T09:36:24;3.70;86.70
26254;DHT22;53339;51.378;0.094;2022-12-07T09:38:51;3.70;86.50
26254;DHT22;53339;51.378;0.094;2022-12-07T09:41:19;3.70;86.60
26254;DHT22;53339;51.378;0.094;2022-12-07T09:43:47;3.70;86.70
26254;DHT22;53339;51.378;0.094;2022-12-07T09:46:16;3.80;86.20
26254;DHT22;53339;51.378;0.094;2022-12-07T09:48:47;3.70;86.00
26254;DHT22;53339;51.378;0.094;2022-12-07T09:51:21;3.70;86.30
26254;DHT22;53339;51.378;0.094;2022-12-07T09:53:56;3.70;86.50
26254;DHT22;53339;51.378;0.094;2022-12-07T09:56:25;3.70;86.20
26254;DHT22;53339;51.378;0.094;2022-12-07T09:58:58;3.70;86.00
26254;DHT22;53339;51.378;0.094;2022-12-07T10:01:30;3.70;86.10
26254;DHT22;53339;51.378;0.094;2022-12-07T10:04:22;3.80;86.10
26254;DHT22;53339;51.378;0.094;2022-12-07T10:06:51;3.80;85.50
26254;DHT22;53339;51.378;0.094;2022-12-07T10:09:20;3.80;85.80
26254;DHT22;53339;51.378;0.094;2022-12-07T10:12:09;3.80;85.90
26254;DHT22;53339;51.378;0.094;2022-12-07T10:14:40;3.90;85.80
26254;DHT22;53339;51.378;0.094;2022-12-07T10:17:39;3.80;85.20
26254;DHT22;53339;51.378;0.094;2022-12-07T10:22:54;3.90;85.50
26254;DHT22;53339;51.378;0.094;2022-12-07T10:25:26;3.90;85.40
26254;DHT22;53339;51.378;0.094;2022-12-07T10:30:56;3.90;85.30
26254;DHT22;53339;51.378;0.094;2022-12-07T10:33:40;4.10;85.40
26254;DHT22;53339;51.378;0.094;2022-12-07T10:36:18;4.10;85.10
26254;DHT22;53339;51.378;0.094;2022-12-07T10:38:49;4.10;85.00
26254;DHT22;53339;51.378;0.094;2022-12-07T10:41:17;4.20;85.40
26254;DHT22;53339;51.378;0.094;2022-12-07T10:43:52;4.30;85.20
26254;DHT22;53339;51.378;0.094;2022-12-07T11:00:23;4.20;84.50
26254;DHT22;53339;51.378;0.094;2022-12-07T11:11:33;4.10;84.40
26254;DHT22;53339;51.378;0.094;2022-12-07T11:19:49;4.10;83.90
26254;DHT22;53339;51.378;0.094;2022-12-07T11:22:24;4.20;84.50
26254;DHT22;53339;51.378;0.094;2022-12-07T11:30:23;4.20;84.10
26254;DHT22;53339;51.378;0.094;2022-12-07T11:33:22;4.30;84.00
26254;DHT22;53339;51.378;0.094;2022-12-07T11:36:06;4.30;84.20
26254;DHT22;53339;51.378;0.094;2022-12-07T11:38:52;4.40;84.00
26254;DHT22;53339;51.378;0.094;2022-12-07T11:41:23;4.40;84.10
26254;DHT22;53339;51.378;0.094;2022-12-07T11:46:53;4.40;82.50
26254;DHT22;53339;51.378;0.094;2022-12-07T11:55:40;4.30;83.50
26254;DHT22;53339;51.378;0.094;2022-12-07T12:04:12;4.30;83.70
26254;DHT22;53339;51.378;0.094;2022-12-07T12:06:40;4.30;82.90
26254;DHT22;53339;51.378;0.094;2022-12-07T12:09:13;4.20;83.00
26254;DHT22;53339;51.378;0.094;2022-12-07T12:21:29;4.30;83.50
26254;DHT22;53339;51.378;0.094;2022-12-07T12:24:00;4.40;83.60
26254;DHT22;53339;51.378;0.094;2022-12-07T12:26:33;4.40;82.80
26254;DHT22;53339;51.378;0.094;2022-12-07T12:29:20;4.40;82.40
26254;DHT22;53339;51.378;0.094;2022-12-07T12:32:18;4.40;82.40
26254;DHT22;53339;51.378;0.094;2022-12-07T12:37:39;4.40;82.10
26254;DHT22;53339;51.378;0.094;2022-12-07T12:42:49;4.40;82.50
26254;DHT22;53339;51.378;0.094;2022-12-07T12:50:37;4.40;83.00
26254;DHT22;53339;51.378;0.094;2022-12-07T12:53:25;4.40;83.20
26254;DHT22;53339;51.378;0.094;2022-12-07T12:56:27;4.50;83.20
26254;DHT22;53339;51.378;0.094;2022-12-07T13:01:48;4.60;82.40
26254;DHT22;53339;51.378;0.094;2022-12-07T13:04:37;4.70;82.00
26254;DHT22;53339;51.378;0.094;2022-12-07T13:07:11;4.70;81.70
26254;DHT22;53339;51.378;0.094;2022-12-07T13:09:43;4.80;81.60
26254;DHT22;53339;51.378;0.094;2022-12-07T13:12:14;4.90;81.60
26254;DHT22;53339;51.378;0.094;2022-12-07T13:14:58;4.80;81.70
26254;DHT22;53339;51.378;0.094;2022-12-07T13:20:03;4.90;81.40
26254;DHT22;53339;51.378;0.094;2022-12-07T13:26:09;4.80;81.60
26254;DHT22;53339;51.378;0.094;2022-12-07T13:28:20;4.80;81.90
26254;DHT22;53339;51.378;0.094;2022-12-07T13:31:00;4.80;81.60
26254;DHT22;53339;51.378;0.094;2022-12-07T13:33:30;4.80;81.50
26254;DHT22;53339;51.378;0.094;2022-12-07T13:35:58;4.90;81.70
26254;DHT22;53339;51.378;0.094;2022-12-07T13:38:30;4.90;81.90
26254;DHT22;53339;51.378;0.094;2022-12-07T13:41:04;4.90;81.80
26254;DHT22;53339;51.378;0.094;2022-12-07T13:43:43;4.90;81.30
26254;DHT22;53339;51.378;0.094;2022-12-07T13:46:11;5.00;81.50
26254;DHT22;53339;51.378;0.094;2022-12-07T13:48:49;5.00;81.60
26254;DHT22;53339;51.378;0.094;2022-12-07T13:51:25;5.10;81.50
26254;DHT22;53339;51.378;0.094;2022-12-07T13:54:11;5.10;81.40
26254;DHT22;53339;51.378;0.094;2022-12-07T13:56:39;5.20;81.20
26254;DHT22;53339;51.378;0.094;2022-12-07T13:59:16;5.20;81.20
26254;DHT22;53339;51.378;0.094;2022-12-07T14:01:48;5.30;81.20
26254;DHT22;53339;51.378;0.094;2022-12-07T14:04:37;5.30;81.00
26254;DHT22;53339;51.378;0.094;2022-12-07T14:07:24;5.30;81.10
26254;DHT22;53339;51.378;0.094;2022-12-07T14:10:00;5.30;81.40
26254;DHT22;53339;51.378;0.094;2022-12-07T14:12:29;5.30;81.30
26254;DHT22;53339;51.378;0.094;2022-12-07T14:14:58;5.30;81.20
26254;DHT22;53339;51.378;0.094;2022-12-07T14:17:27;5.30;81.20
26254;DHT22;53339;51.378;0.094;2022-12-07T14:20:02;5.30;81.40
26254;DHT22;53339;51.378;0.094;2022-12-07T14:22:34;5.30;81.30
26254;DHT22;53339;51.378;0.094;2022-12-07T14:25:19;5.40;81.20
26254;DHT22;53339;51.378;0.094;2022-12-07T14:28:00;5.40;81.20
26254;DHT22;53339;51.378;0.094;2022-12-07T14:30:30;5.40;81.50
26254;DHT22;53339;51.378;0.094;2022-12-07T14:33:00;5.50;81.60
26254;DHT22;53339;51.378;0.094;2022-12-07T14:35:29;5.50;81.50
26254;DHT22;53339;51.378;0.094;2022-12-07T14:37:57;5.50;81.40
26254;DHT22;53339;51.378;0.094;2022-12-07T14:40:27;5.50;81.40
26254;DHT22;53339;51.378;0.094;2022-12-07T14:42:59;5.40;81.20
26254;DHT22;53339;51.378;0.094;2022-12-07T14:45:29;5.40;81.20
26254;DHT22;53339;51.378;0.094;2022-12-07T14:47:56;5.40;81.40
26254;DHT22;53339;51.378;0.094;2022-12-07T14:50:47;5.40;81.70
26254;DHT22;53339;51.378;0.094;2022-12-07T14:53:38;5.30;81.40
26254;DHT22;53339;51.378;0.094;2022-12-07T14:56:06;5.10;80.50
26254;DHT22;53339;51.378;0.094;2022-12-07T14:58:34;4.80;80.70
26254;DHT22;53339;51.378;0.094;2022-12-07T15:01:02;4.60;81.60
26254;DHT22;53339;51.378;0.094;2022-12-07T15:03:29;4.60;82.20
26254;DHT22;53339;51.378;0.094;2022-12-07T15:05:57;4.50;81.70
26254;DHT22;53339;51.378;0.094;2022-12-07T15:08:25;4.40;81.60
26254;DHT22;53339;51.378;0.094;2022-12-07T15:10:52;4.40;82.40
26254;DHT22;53339;51.378;0.094;2022-12-07T15:13:20;4.40;82.80
26254;DHT22;53339;51.378;0.094;2022-12-07T15:16:10;4.40;82.70
26254;DHT22;53339;51.378;0.094;2022-12-07T15:18:37;4.30;82.30
26254;DHT22;53339;51.378;0.094;2022-12-07T15:21:14;4.30;82.80
26254;DHT22;53339;51.378;0.094;2022-12-07T15:23:42;4.20;83.00
26254;DHT22;53339;51.378;0.094;2022-12-07T15:26:12;4.10;82.60
26254;DHT22;53339;51.378;0.094;2022-12-07T15:28:41;3.90;82.50
26254;DHT22;53339;51.378;0.094;2022-12-07T15:31:16;3.90;83.20
26254;DHT22;53339;51.378;0.094;2022-12-07T15:34:04;3.80;83.60
26254;DHT22;53339;51.378;0.094;2022-12-07T15:36:33;3.80;83.30
26254;DHT22;53339;51.378;0.094;2022-12-07T15:39:01;3.60;83.30
26254;DHT22;53339;51.378;0.094;2022-12-07T15:41:40;3.60;83.90
26254;DHT22;53339;51.378;0.094;2022-12-07T15:44:17;3.60;84.20
26254;DHT22;53339;51.378;0.094;2022-12-07T15:47:04;3.50;83.80
26254;DHT22;53339;51.378;0.094;2022-12-07T15:49:32;3.30;83.90
26254;DHT22;53339;51.378;0.094;2022-12-07T15:51:59;3.30;84.40
26254;DHT22;53339;51.378;0.094;2022-12-07T15:54:28;3.30;84.70
26254;DHT22;53339;51.378;0.094;2022-12-07T15:56:56;3.30;84.30
26254;DHT22;53339;51.378;0.094;2022-12-07T15:59:25;3.20;84.50
26254;DHT22;53339;51.378;0.094;2022-12-07T16:01:53;3.20;85.10
26254;DHT22;53339;51.378;0.094;2022-12-07T16:04:21;3.30;85.40
26254;DHT22;53339;51.378;0.094;2022-12-07T16:06:49;3.30;84.90
26254;DHT22;53339;51.378;0.094;2022-12-07T16:09:18;3.20;84.90
26254;DHT22;53339;51.378;0.094;2022-12-07T16:11:46;3.20;85.30
26254;DHT22;53339;51.378;0.094;2022-12-07T16:14:14;3.20;85.30
26254;DHT22;53339;51.378;0.094;2022-12-07T16:16:41;3.10;84.40
26254;DHT22;53339;51.378;0.094;2022-12-07T16:19:09;2.80;84.60
26254;DHT22;53339;51.378;0.094;2022-12-07T16:21:39;2.80;85.10
26254;DHT22;53339;51.378;0.094;2022-12-07T16:24:07;2.80;85.50
26254;DHT22;53339;51.378;0.094;2022-12-07T16:26:34;2.70;85.10
26254;DHT22;53339;51.378;0.094;2022-12-07T16:29:02;2.60;85.10
26254;DHT22;53339;51.378;0.094;2022-12-07T16:31:30;2.60;85.60
26254;DHT22;53339;51.378;0.094;2022-12-07T16:33:58;2.60;86.00
26254;DHT22;53339;51.378;0.094;2022-12-07T16:36:26;2.60;85.80
26254;DHT22;53339;51.378;0.094;2022-12-07T16:39:15;2.50;85.70
26254;DHT22;53339;51.378;0.094;2022-12-07T16:41:42;2.50;86.20
26254;DHT22;53339;51.378;0.094;2022-12-07T16:44:11;2.60;86.40
26254;DHT22;53339;51.378;0.094;2022-12-07T16:46:40;2.50;86.00
26254;DHT22;53339;51.378;0.094;2022-12-07T16:49:15;2.40;86.00
26254;DHT22;53339;51.378;0.094;2022-12-07T16:51:42;2.50;86.50
26254;DHT22;53339;51.378;0.094;2022-12-07T16:54:11;2.60;86.60
26254;DHT22;53339;51.378;0.094;2022-12-07T16:56:39;2.50;86.10
26254;DHT22;53339;51.378;0.094;2022-12-07T16:59:07;2.30;86.00
26254;DHT22;53339;51.378;0.094;2022-12-07T17:01:35;2.30;86.30
26254;DHT22;53339;51.378;0.094;2022-12-07T17:04:03;2.40;86.60
26254;DHT22;53339;51.378;0.094;2022-12-07T17:06:31;2.30;86.30
26254;DHT22;53339;51.378;0.094;2022-12-07T17:08:59;2.20;86.10
26254;DHT22;53339;51.378;0.094;2022-12-07T17:11:29;2.20;86.50
26254;DHT22;53339;51.378;0.094;2022-12-07T17:13:58;2.20;86.80
26254;DHT22;53339;51.378;0.094;2022-12-07T17:16:44;2.20;86.60
26254;DHT22;53339;51.378;0.094;2022-12-07T17:19:15;2.10;86.60
26254;DHT22;53339;51.378;0.094;2022-12-07T17:21:43;2.10;87.00
26254;DHT22;53339;51.378;0.094;2022-12-07T17:24:13;2.20;87.20
26254;DHT22;53339;51.378;0.094;2022-12-07T17:26:42;2.10;86.70
26254;DHT22;53339;51.378;0.094;2022-12-07T17:29:12;1.90;86.10
26254;DHT22;53339;51.378;0.094;2022-12-07T17:31:40;1.80;86.30
26254;DHT22;53339;51.378;0.094;2022-12-07T17:34:14;1.90;86.90
26254;DHT22;53339;51.378;0.094;2022-12-07T17:36:41;1.90;87.20
26254;DHT22;53339;51.378;0.094;2022-12-07T17:39:10;1.90;87.10
26254;DHT22;53339;51.378;0.094;2022-12-07T17:41:38;1.90;87.00
26254;DHT22;53339;51.378;0.094;2022-12-07T17:44:26;1.90;87.40
26254;DHT22;53339;51.378;0.094;2022-12-07T17:46:54;2.00;87.40
26254;DHT22;53339;51.378;0.094;2022-12-07T17:49:25;1.90;87.00
26254;DHT22;53339;51.378;0.094;2022-12-07T17:51:53;1.80;87.00
26254;DHT22;53339;51.378;0.094;2022-12-07T17:54:40;1.80;87.40
26254;DHT22;53339;51.378;0.094;2022-12-07T17:57:07;1.80;87.40